Latest Weather Observations for Carnarvon

IDW60801

Issued at 10:03 pm WST Tuesday 12 December 2017 (issued every 30 minutes, with the page automatically refreshed every 10 minutes)

About weather observations | Map of weather stations | Latest weather observations for WA | Other Formats
Station Details ID: 006011 Name: CARNARVON AIRPORT Lat: -24.89 Lon: 113.67 Height: 4.0 m
Data from the previous 72 hours. | See also: Recent months at Carnarvon
Date/Time
WST
Temp
°C
App
Temp
°C
Dew
Point
°C
Rel
Hum
%
Delta-T
°C
Wind Press
QNH
hPa
Press
MSL
hPa
Rain since
9am
mm
Dir  Spd
km/h
Gust
km/h
Spd
kts
Gust
kts
12/10:00pm 22.7 18.4 17.9 74 3.0 S 37 50 20 27 1013.2 - 0.0
12/09:30pm 22.9 18.6 17.8 73 3.2 S 37 50 20 27 1013.1 - 0.0
12/09:00pm 23.2 18.9 17.7 71 3.4 S 37 52 20 28 1012.7 1012.7 0.0
12/08:30pm 23.6 19.3 17.8 70 3.6 S 37 46 20 25 1012.7 - 0.0
12/08:00pm 23.8 19.8 18.6 72 3.3 S 37 50 20 27 1012.4 - 0.0
12/07:30pm 23.8 19.4 18.4 72 3.4 S 39 56 21 30 1011.9 - 0.0
12/07:00pm 24.1 19.0 18.7 72 3.4 SSW 43 56 23 30 1011.9 - 0.0
12/06:30pm 24.3 20.0 18.6 70 3.6 SSW 39 54 21 29 1011.7 - 0.0
12/06:00pm 24.9 20.0 19.1 70 3.7 SSW 43 54 23 29 1011.5 1011.5 0.0
12/05:30pm 25.5 20.9 18.9 67 4.2 SSW 41 54 22 29 1011.4 - 0.0
12/05:00pm 26.0 21.4 18.1 61 5.0 SSW 39 54 21 29 1011.5 - 0.0
12/04:30pm 26.0 21.7 18.6 63 4.7 SSW 39 50 21 27 1011.6 - 0.0
12/04:00pm 26.6 22.9 18.4 60 5.2 SSW 35 46 19 25 1011.8 - 0.0
12/03:30pm 27.6 24.3 18.3 57 5.9 SSW 33 43 18 23 1012.1 - 0.0
12/03:00pm 26.7 22.9 18.2 59 5.4 SSW 35 44 19 24 1012.3 1012.3 0.0
12/02:30pm 27.0 24.0 18.7 60 5.3 SSW 32 41 17 22 1012.4 - 0.0
12/02:00pm 27.1 23.8 18.3 58 5.6 SSW 33 41 18 22 1012.5 - 0.0
12/01:30pm 27.0 23.7 18.0 58 5.7 SSW 32 41 17 22 1012.9 - 0.0
12/01:00pm 27.2 24.5 18.4 58 5.6 SSW 30 41 16 22 1013.1 - 0.0
12/12:30pm 27.1 24.5 18.7 60 5.4 SSW 30 37 16 20 1013.2 - 0.0
12/12:00pm 27.1 24.8 18.5 59 5.5 SW 28 37 15 20 1013.4 1013.4 0.0
12/11:30am 25.5 22.9 17.9 63 4.8 SSW 28 33 15 18 1013.6 - 0.0
12/11:00am 25.0 22.5 18.0 65 4.4 SSW 28 35 15 19 1013.8 - 0.0
12/10:30am 25.7 23.4 18.4 64 4.6 SSW 28 35 15 19 1013.9 - 0.0
12/10:00am 24.5 22.8 18.0 67 4.1 SSW 24 32 13 17 1013.9 - 0.0
12/09:30am 24.0 21.9 19.0 73 3.2 SSW 28 35 15 19 1014.0 - 0.0
12/09:00am 24.4 22.9 18.6 70 3.7 SSW 24 32 13 17 1013.9 1013.9 0.0
12/08:30am 24.5 24.3 18.5 69 3.8 S 17 20 9 11 1013.8 - 0.0
12/08:00am 23.8 23.0 18.4 72 3.4 SSW 20 30 11 16 1013.6 - 0.0
12/07:30am 23.9 22.7 18.3 71 3.5 SSW 22 28 12 15 1013.5 - 0.0
12/07:00am 24.2 23.2 16.7 63 4.6 S 17 22 9 12 1013.2 - 0.0
12/06:30am 23.4 22.8 18.5 74 3.1 SSW 19 24 10 13 1012.8 - 0.0
12/06:00am 23.5 23.0 17.9 71 3.5 S 17 24 9 13 1012.5 1012.5 0.0
12/05:30am 23.5 22.8 17.4 68 3.8 SW 17 24 9 13 1012.2 - 0.0
12/05:00am 23.3 21.6 18.0 72 3.3 SSW 24 33 13 18 1011.8 - 0.0
12/04:30am 23.4 22.2 17.4 69 3.7 SW 20 26 11 14 1011.5 - 0.0
12/04:00am 23.5 21.9 16.5 65 4.3 SW 20 28 11 15 1011.4 - 0.0
12/03:30am 23.4 21.6 17.8 71 3.5 SW 24 32 13 17 1011.3 - 0.0
12/03:00am 23.4 21.7 18.0 71 3.4 SW 24 32 13 17 1011.3 1011.3 0.0
12/02:30am 23.6 21.6 17.3 67 3.9 SSW 24 32 13 17 1011.3 - 0.0
12/02:00am 23.4 21.7 18.0 71 3.4 SSW 24 33 13 18 1011.2 - 0.0
12/01:30am 23.3 22.5 17.9 71 3.4 SW 19 26 10 14 1011.4 - 0.0
12/01:00am 23.4 21.9 18.5 74 3.1 SW 24 32 13 17 1011.5 - 0.0
12/12:30am 23.3 22.8 19.1 77 2.7 SW 20 26 11 14 1011.8 - 0.0
12/12:00am 23.3 22.8 19.2 78 2.6 SW 20 26 11 14 1012.0 1012.0 0.0
 
Date/Time
WST
Temp
°C
App
Temp
°C
Dew
Point
°C
Rel
Hum
%
Delta-T
°C
Wind Press
QNH
hPa
Press
MSL
hPa
Rain since
9am
mm
Dir  Spd
km/h
Gust
km/h
Spd
kts
Gust
kts
11/11:30pm 23.5 23.1 19.4 78 2.6 SW 20 28 11 15 1012.3 - 0.0
11/11:00pm 23.8 23.7 19.6 77 2.7 SW 19 24 10 13 1012.5 - 0.0
11/10:30pm 23.6 24.2 18.7 74 3.1 SW 13 19 7 10 1012.7 - 0.0
11/10:00pm 23.7 23.7 18.1 71 3.5 WSW 15 20 8 11 1012.7 - 0.0
11/09:30pm 23.7 23.0 17.4 68 3.9 WSW 17 22 9 12 1012.5 - 0.0
11/09:00pm 23.7 22.9 17.2 67 4.0 WSW 17 22 9 12 1012.4 1012.4 0.0
11/08:30pm 23.8 22.6 17.0 65 4.2 WSW 19 24 10 13 1012.2 - 0.0
11/08:00pm 23.9 23.1 18.0 69 3.7 W 19 24 10 13 1011.9 - 0.0
11/07:30pm 24.0 23.5 17.9 68 3.8 W 17 24 9 13 1011.8 - 0.0
11/07:00pm 24.4 23.1 17.3 64 4.4 W 20 26 11 14 1011.5 - 0.0
11/06:30pm 25.1 24.2 18.1 65 4.4 WSW 20 26 11 14 1011.2 - 0.0
11/06:00pm 25.3 23.8 17.8 63 4.7 WSW 22 30 12 16 1010.9 1010.9 0.0
11/05:30pm 25.7 23.9 17.9 62 4.9 W 24 30 13 16 1010.7 - 0.0
11/05:00pm 26.1 24.3 17.8 60 5.2 W 24 32 13 17 1010.6 - 0.0
11/04:30pm 26.5 23.9 17.8 58 5.5 W 28 35 15 19 1010.5 - 0.0
11/04:00pm 26.9 24.7 17.9 57 5.7 W 26 35 14 19 1010.5 - 0.0
11/03:30pm 27.1 24.4 17.6 56 6.0 W 28 39 15 21 1010.6 - 0.0
11/03:00pm 27.9 25.1 17.4 52 6.6 W 28 39 15 21 1010.5 1010.5 0.0
11/02:30pm 27.5 24.6 16.0 49 7.1 WNW 26 35 14 19 1010.7 - 0.0
11/02:00pm 27.6 25.0 17.8 55 6.2 W 28 35 15 19 1010.8 - 0.0
11/01:30pm 28.4 25.6 17.3 51 7.0 WNW 28 37 15 20 1010.8 - 0.0
11/01:00pm 28.3 24.7 15.2 44 8.0 WNW 28 37 15 20 1010.8 - 0.0
11/12:30pm 27.6 24.1 15.5 47 7.4 WNW 28 37 15 20 1011.3 - 0.0
11/12:00pm 27.8 24.4 15.7 47 7.4 W 28 33 15 18 1011.4 1011.4 0.0
11/11:30am 27.6 24.4 16.3 50 7.0 WNW 28 35 15 19 1011.6 - 0.0
11/11:00am 27.7 25.4 15.8 48 7.3 WNW 22 32 12 17 1011.9 - 0.0
11/10:30am 27.6 25.8 17.0 52 6.6 WNW 22 32 12 17 1012.1 - 0.0
11/10:00am 26.5 24.6 16.6 54 6.1 NW 22 28 12 15 1012.3 - 0.0
11/09:30am 26.9 24.6 15.8 50 6.8 NW 22 39 12 21 1012.3 - 0.0
11/09:00am 27.2 24.9 15.8 49 7.0 NNW 22 32 12 17 1012.3 1012.3 0.0
11/08:30am 25.6 23.2 16.3 56 5.7 NW 24 32 13 17 1012.4 - 0.0
11/08:00am 26.2 24.6 15.9 53 6.3 NW 19 22 10 12 1012.2 - 0.0
11/07:30am 24.6 24.7 17.4 64 4.5 N 13 17 7 9 1012.1 - 0.0
11/07:00am 23.0 22.8 18.6 76 2.8 N 17 20 9 11 1012.0 - 0.0
11/06:30am 21.6 21.6 18.1 80 2.2 NNE 15 19 8 10 1011.7 - 0.0
11/06:00am 20.1 20.7 17.7 86 1.5 NNE 11 15 6 8 1011.4 1011.4 0.0
11/05:30am 19.4 19.8 17.3 88 1.3 NNE 11 15 6 8 1010.9 - 0.0
11/05:00am 19.4 20.2 17.3 88 1.3 NNE 9 9 5 5 1010.7 - 0.0
11/04:30am 19.6 20.4 17.3 86 1.4 NNE 9 13 5 7 1010.3 - 0.0
11/04:00am 20.2 20.8 17.8 86 1.5 NNE 11 13 6 7 1010.2 - 0.0
11/03:30am 20.4 21.5 18.0 86 1.5 N 9 11 5 6 1010.2 - 0.0
11/03:00am 20.9 21.9 17.8 82 1.9 N 9 11 5 6 1010.2 1010.2 0.0
11/02:30am 20.8 21.8 17.7 82 1.9 NNE 9 9 5 5 1010.3 - 0.0
11/02:00am 20.7 21.5 17.3 81 2.1 NNE 9 11 5 6 1010.5 - 0.0
11/01:30am 21.3 22.3 17.7 80 2.2 N 9 11 5 6 1010.7 - 0.0
11/01:00am 23.1 24.5 18.7 76 2.8 NW 9 13 5 7 1011.0 - 0.0
11/12:30am 23.1 24.3 18.3 74 3.0 NW 9 13 5 7 1011.3 - 0.0
11/12:00am 22.9 23.7 18.1 74 3.0 WNW 11 15 6 8 1011.5 1011.5 0.0
 
Date/Time
WST
Temp
°C
App
Temp
°C
Dew
Point
°C
Rel
Hum
%
Delta-T
°C
Wind Press
QNH
hPa
Press
MSL
hPa
Rain since
9am
mm
Dir  Spd
km/h
Gust
km/h
Spd
kts
Gust
kts
10/11:30pm 23.2 23.8 17.7 71 3.4 WNW 11 15 6 8 1011.7 - 0.0
10/11:00pm 23.2 24.0 18.1 73 3.2 WNW 11 15 6 8 1011.8 - 0.0
10/10:30pm 23.2 23.8 17.7 71 3.4 WNW 11 13 6 7 1011.8 - 0.0
10/10:00pm 23.2 23.8 17.7 71 3.4 WNW 11 15 6 8 1011.7 - 0.0
10/09:30pm 23.3 23.4 17.5 70 3.6 WNW 13 17 7 9 1011.6 - 0.0
10/09:00pm 23.6 23.4 17.7 69 3.7 WNW 15 19 8 10 1011.4 1011.4 0.0
10/08:30pm 23.7 23.4 17.4 68 3.9 WNW 15 19 8 10 1011.2 - 0.0
10/08:00pm 23.8 23.5 17.4 67 4.0 WNW 15 19 8 10 1010.8 - 0.0
10/07:30pm 24.0 23.7 17.4 66 4.1 W 15 19 8 10 1010.4 - 0.0
10/07:00pm 24.4 24.0 17.1 63 4.5 W 15 20 8 11 1010.2 - 0.0
10/06:30pm 24.9 24.3 17.5 63 4.6 W 17 22 9 12 1009.7 - 0.0
10/06:00pm 25.4 24.2 17.6 62 4.9 W 20 28 11 15 1009.4 1009.4 0.0
10/05:30pm 26.0 24.5 17.7 60 5.2 W 22 30 12 16 1009.1 - 0.0
10/05:00pm 26.3 25.3 17.9 60 5.3 W 20 30 11 16 1008.9 - 0.0
10/04:30pm 26.3 25.4 18.1 60 5.2 W 20 28 11 15 1008.8 - 0.0
10/04:00pm 27.3 25.8 17.8 56 6.0 W 22 32 12 17 1008.9 - 0.0
10/03:30pm 27.0 24.4 16.9 54 6.3 W 26 33 14 18 1008.9 - 0.0
10/03:00pm 27.4 24.0 15.8 49 7.1 W 28 35 15 19 1009.1 1009.1 0.0
10/02:30pm 27.3 23.5 14.7 46 7.6 W 28 39 15 21 1009.1 - 0.0
10/02:00pm 26.9 23.7 17.3 55 6.0 W 30 37 16 20 1009.1 - 0.0
10/01:30pm 27.2 24.2 17.7 56 6.0 W 30 39 16 21 1009.3 - 0.0
10/01:00pm 28.0 25.1 17.9 54 6.4 W 30 35 16 19 1009.5 - 0.0
10/12:30pm 27.1 24.0 16.6 52 6.5 W 28 39 15 21 1009.5 - 0.0
10/12:00pm 28.3 25.7 16.0 47 7.6 W 24 32 13 17 1009.6 1009.6 0.0
10/11:30am 27.6 25.5 16.3 50 7.0 W 22 32 12 17 1009.8 - 0.0
10/11:00am 27.0 24.8 16.9 54 6.3 W 24 32 13 17 1010.1 - 0.0
10/10:30am 26.7 24.2 17.1 55 6.0 WSW 26 32 14 17 1010.1 - 0.0
10/10:00am 26.6 25.2 17.0 55 6.0 WSW 20 26 11 14 1010.2 - 0.0
10/09:30am 26.9 24.6 16.6 53 6.4 W 24 33 13 18 1010.3 - 0.0
10/09:00am 26.9 25.2 16.2 52 6.6 WNW 20 28 11 15 1010.1 1010.1 0.0
10/08:30am 26.3 25.1 16.2 53 6.2 NNW 17 24 9 13 1010.0 - 0.0
10/08:00am 24.9 25.1 16.8 60 5.0 N 11 15 6 8 1010.0 - 0.0
10/07:30am 24.3 23.7 16.7 62 4.7 N 15 22 8 12 1009.8 - 0.0
10/07:00am 23.3 24.8 17.7 71 3.5 ENE 6 9 3 5 1009.5 - 0.0
10/06:30am 22.1 23.1 17.7 76 2.7 E 9 13 5 7 1009.4 - 0.0
10/06:00am 19.6 20.4 17.3 86 1.4 NNE 9 11 5 6 1008.9 1008.9 0.0
10/05:30am 19.8 21.1 17.5 86 1.4 N 7 9 4 5 1008.6 - 0.0
10/05:00am 20.3 20.5 17.7 85 1.6 N 13 15 7 8 1008.4 - 0.0
10/04:30am 20.2 20.8 17.8 86 1.5 N 11 13 6 7 1008.5 - 0.0
10/04:00am 20.2 20.8 17.6 85 1.6 N 11 11 6 6 1008.6 - 0.0
10/03:30am 20.3 21.6 17.5 84 1.7 NNW 7 7 4 4 1008.6 - 0.0
10/03:00am 20.3 21.6 17.5 84 1.7 N 7 9 4 5 1008.4 1008.4 0.0
10/02:30am 20.7 21.7 17.8 83 1.8 N 9 11 5 6 1008.5 - 0.0
10/02:00am 20.9 21.9 17.8 82 1.9 N 9 11 5 6 1008.7 - 0.0
10/01:30am 21.5 21.9 18.1 81 2.1 NNW 13 15 7 8 1008.9 - 0.0
10/01:00am 22.0 23.6 18.2 79 2.4 NNW 7 9 4 5 1009.4 - 0.0
10/12:30am 22.6 23.8 18.3 76 2.7 WNW 9 11 5 6 1009.6 - 0.0
10/12:00am 23.0 24.2 18.2 74 3.0 W 9 13 5 7 1009.8 1009.8 0.0
 
Date/Time
WST
Temp
°C
App
Temp
°C
Dew
Point
°C
Rel
Hum
%
Delta-T
°C
Wind Press
QNH
hPa
Press
MSL
hPa
Rain since
9am
mm
Dir  Spd
km/h
Gust
km/h
Spd
kts
Gust
kts
09/11:30pm 23.1 24.3 18.2 74 3.1 WSW 9 13 5 7 1010.2 - 0.0
09/11:00pm 22.6 24.5 18.5 77 2.6 W 6 7 3 4 1009.9 - 0.0
09/10:30pm 22.7 24.6 18.6 77 2.6 W 6 9 3 5 1010.2 - 0.0

Other Formats:

Comma delimited format used in spreadsheet applications
http://www.bom.gov.au/fwo/IDW60801/IDW60801.94300.axf

JavaScript Object Notation format (JSON) in row-major order
http://www.bom.gov.au/fwo/IDW60801/IDW60801.94300.json